sensor_id;sensor_type;location;lat;lon;timestamp;P1;durP1;ratioP1;P2;durP2;ratioP2
50483;SDS011;36409;52.168;20.878;2023-05-29T00:03:00;12.50;;;4.33;;
50483;SDS011;36409;52.168;20.878;2023-05-29T00:05:31;10.73;;;4.30;;
50483;SDS011;36409;52.168;20.878;2023-05-29T00:08:01;8.50;;;4.17;;
50483;SDS011;36409;52.168;20.878;2023-05-29T00:10:31;9.60;;;3.97;;
50483;SDS011;36409;52.168;20.878;2023-05-29T00:13:03;9.73;;;4.13;;
50483;SDS011;36409;52.168;20.878;2023-05-29T00:15:40;10.23;;;3.93;;
50483;SDS011;36409;52.168;20.878;2023-05-29T00:18:17;7.83;;;3.83;;
50483;SDS011;36409;52.168;20.878;2023-05-29T00:20:52;12.63;;;4.57;;
50483;SDS011;36409;52.168;20.878;2023-05-29T00:23:23;9.70;;;4.00;;
50483;SDS011;36409;52.168;20.878;2023-05-29T00:26:00;7.53;;;4.00;;
50483;SDS011;36409;52.168;20.878;2023-05-29T00:28:30;12.60;;;4.50;;
50483;SDS011;36409;52.168;20.878;2023-05-29T00:31:05;7.77;;;3.47;;
50483;SDS011;36409;52.168;20.878;2023-05-29T00:33:40;8.90;;;3.50;;
50483;SDS011;36409;52.168;20.878;2023-05-29T00:36:10;11.80;;;4.03;;
50483;SDS011;36409;52.168;20.878;2023-05-29T00:38:39;11.57;;;3.70;;
50483;SDS011;36409;52.168;20.878;2023-05-29T00:41:15;17.00;;;3.93;;
50483;SDS011;36409;52.168;20.878;2023-05-29T00:43:44;15.27;;;4.33;;
50483;SDS011;36409;52.168;20.878;2023-05-29T00:46:23;9.20;;;4.13;;
50483;SDS011;36409;52.168;20.878;2023-05-29T00:48:59;12.00;;;4.10;;
50483;SDS011;36409;52.168;20.878;2023-05-29T00:51:32;10.27;;;3.70;;
50483;SDS011;36409;52.168;20.878;2023-05-29T00:54:02;12.87;;;4.20;;
50483;SDS011;36409;52.168;20.878;2023-05-29T00:56:38;12.60;;;3.50;;
50483;SDS011;36409;52.168;20.878;2023-05-29T00:59:18;12.97;;;4.00;;
50483;SDS011;36409;52.168;20.878;2023-05-29T01:02:01;13.53;;;4.53;;
50483;SDS011;36409;52.168;20.878;2023-05-29T01:04:48;8.87;;;3.37;;
50483;SDS011;36409;52.168;20.878;2023-05-29T01:07:29;7.20;;;3.80;;
50483;SDS011;36409;52.168;20.878;2023-05-29T01:10:03;14.97;;;3.80;;
50483;SDS011;36409;52.168;20.878;2023-05-29T01:12:43;9.13;;;4.23;;
50483;SDS011;36409;52.168;20.878;2023-05-29T01:15:33;9.20;;;3.10;;
50483;SDS011;36409;52.168;20.878;2023-05-29T01:18:15;12.37;;;3.53;;
50483;SDS011;36409;52.168;20.878;2023-05-29T01:21:08;11.03;;;3.90;;
50483;SDS011;36409;52.168;20.878;2023-05-29T01:26:47;10.23;;;3.73;;
50483;SDS011;36409;52.168;20.878;2023-05-29T01:29:25;12.73;;;3.83;;
50483;SDS011;36409;52.168;20.878;2023-05-29T01:32:01;11.73;;;3.97;;
50483;SDS011;36409;52.168;20.878;2023-05-29T01:34:39;9.60;;;4.07;;
50483;SDS011;36409;52.168;20.878;2023-05-29T01:37:11;11.90;;;4.60;;
50483;SDS011;36409;52.168;20.878;2023-05-29T01:39:45;9.20;;;4.30;;
50483;SDS011;36409;52.168;20.878;2023-05-29T01:42:16;12.05;;;4.05;;
50483;SDS011;36409;52.168;20.878;2023-05-29T01:44:45;10.23;;;4.60;;
50483;SDS011;36409;52.168;20.878;2023-05-29T01:47:18;7.00;;;3.90;;
50483;SDS011;36409;52.168;20.878;2023-05-29T01:49:52;11.67;;;4.20;;
50483;SDS011;36409;52.168;20.878;2023-05-29T01:55:01;10.20;;;4.50;;
50483;SDS011;36409;52.168;20.878;2023-05-29T01:57:36;10.90;;;4.20;;
50483;SDS011;36409;52.168;20.878;2023-05-29T02:00:15;8.97;;;4.13;;
50483;SDS011;36409;52.168;20.878;2023-05-29T02:02:58;7.13;;;3.63;;
50483;SDS011;36409;52.168;20.878;2023-05-29T02:05:31;8.87;;;3.87;;
50483;SDS011;36409;52.168;20.878;2023-05-29T02:08:00;12.37;;;4.10;;
50483;SDS011;36409;52.168;20.878;2023-05-29T02:10:33;12.63;;;4.70;;
50483;SDS011;36409;52.168;20.878;2023-05-29T02:13:07;8.37;;;4.23;;
50483;SDS011;36409;52.168;20.878;2023-05-29T02:15:39;10.50;;;4.50;;
50483;SDS011;36409;52.168;20.878;2023-05-29T02:18:13;12.98;;;4.72;;
50483;SDS011;36409;52.168;20.878;2023-05-29T02:20:58;9.25;;;4.50;;
50483;SDS011;36409;52.168;20.878;2023-05-29T02:23:28;10.10;;;4.80;;
50483;SDS011;36409;52.168;20.878;2023-05-29T02:26:02;9.10;;;4.10;;
50483;SDS011;36409;52.168;20.878;2023-05-29T02:28:32;9.50;;;4.40;;
50483;SDS011;36409;52.168;20.878;2023-05-29T02:31:07;9.93;;;4.63;;
50483;SDS011;36409;52.168;20.878;2023-05-29T02:33:38;13.53;;;4.70;;
50483;SDS011;36409;52.168;20.878;2023-05-29T02:36:08;11.17;;;4.40;;
50483;SDS011;36409;52.168;20.878;2023-05-29T02:38:41;10.87;;;4.97;;
50483;SDS011;36409;52.168;20.878;2023-05-29T02:41:12;8.93;;;4.27;;
50483;SDS011;36409;52.168;20.878;2023-05-29T02:43:48;9.00;;;4.00;;
50483;SDS011;36409;52.168;20.878;2023-05-29T02:46:22;7.90;;;3.87;;
50483;SDS011;36409;52.168;20.878;2023-05-29T02:49:12;11.73;;;4.50;;
50483;SDS011;36409;52.168;20.878;2023-05-29T02:51:41;10.53;;;4.73;;
50483;SDS011;36409;52.168;20.878;2023-05-29T02:54:15;9.50;;;4.25;;
50483;SDS011;36409;52.168;20.878;2023-05-29T02:56:44;10.93;;;4.70;;
50483;SDS011;36409;52.168;20.878;2023-05-29T02:59:14;10.70;;;4.33;;
50483;SDS011;36409;52.168;20.878;2023-05-29T03:01:45;11.20;;;4.13;;
50483;SDS011;36409;52.168;20.878;2023-05-29T03:04:33;13.13;;;4.20;;
50483;SDS011;36409;52.168;20.878;2023-05-29T03:07:03;8.20;;;4.27;;
50483;SDS011;36409;52.168;20.878;2023-05-29T03:09:47;10.43;;;4.63;;
50483;SDS011;36409;52.168;20.878;2023-05-29T03:12:18;9.07;;;4.47;;
50483;SDS011;36409;52.168;20.878;2023-05-29T03:14:50;10.83;;;4.50;;
50483;SDS011;36409;52.168;20.878;2023-05-29T03:17:23;10.87;;;4.27;;
50483;SDS011;36409;52.168;20.878;2023-05-29T03:20:21;9.97;;;4.30;;
50483;SDS011;36409;52.168;20.878;2023-05-29T03:22:53;8.55;;;4.78;;
50483;SDS011;36409;52.168;20.878;2023-05-29T03:25:25;11.20;;;4.70;;
50483;SDS011;36409;52.168;20.878;2023-05-29T03:27:58;10.97;;;4.33;;
50483;SDS011;36409;52.168;20.878;2023-05-29T03:30:39;9.83;;;4.40;;
50483;SDS011;36409;52.168;20.878;2023-05-29T03:33:10;8.27;;;3.73;;
50483;SDS011;36409;52.168;20.878;2023-05-29T03:35:59;10.33;;;3.97;;
50483;SDS011;36409;52.168;20.878;2023-05-29T03:38:30;10.70;;;4.10;;
50483;SDS011;36409;52.168;20.878;2023-05-29T03:43:46;9.30;;;4.30;;
50483;SDS011;36409;52.168;20.878;2023-05-29T03:46:18;9.60;;;4.50;;
50483;SDS011;36409;52.168;20.878;2023-05-29T03:49:01;11.97;;;4.83;;
50483;SDS011;36409;52.168;20.878;2023-05-29T03:51:32;12.03;;;4.63;;
50483;SDS011;36409;52.168;20.878;2023-05-29T03:54:03;12.00;;;4.53;;
50483;SDS011;36409;52.168;20.878;2023-05-29T03:56:40;10.60;;;5.23;;
50483;SDS011;36409;52.168;20.878;2023-05-29T03:59:12;8.40;;;4.47;;
50483;SDS011;36409;52.168;20.878;2023-05-29T04:01:41;14.07;;;5.03;;
50483;SDS011;36409;52.168;20.878;2023-05-29T04:04:15;8.07;;;4.73;;
50483;SDS011;36409;52.168;20.878;2023-05-29T04:06:45;9.90;;;4.70;;
50483;SDS011;36409;52.168;20.878;2023-05-29T04:09:19;10.43;;;4.50;;
50483;SDS011;36409;52.168;20.878;2023-05-29T04:11:49;13.53;;;5.03;;
50483;SDS011;36409;52.168;20.878;2023-05-29T04:14:32;9.43;;;4.37;;
50483;SDS011;36409;52.168;20.878;2023-05-29T04:17:02;11.40;;;5.40;;
50483;SDS011;36409;52.168;20.878;2023-05-29T04:19:42;10.77;;;5.37;;
50483;SDS011;36409;52.168;20.878;2023-05-29T04:22:15;10.10;;;4.83;;
50483;SDS011;36409;52.168;20.878;2023-05-29T04:24:48;10.07;;;5.00;;
50483;SDS011;36409;52.168;20.878;2023-05-29T04:27:29;12.43;;;4.63;;
50483;SDS011;36409;52.168;20.878;2023-05-29T04:30:13;10.57;;;5.10;;
50483;SDS011;36409;52.168;20.878;2023-05-29T04:32:46;10.93;;;4.57;;
50483;SDS011;36409;52.168;20.878;2023-05-29T04:35:15;13.33;;;4.77;;
50483;SDS011;36409;52.168;20.878;2023-05-29T04:38:02;11.67;;;4.90;;
50483;SDS011;36409;52.168;20.878;2023-05-29T04:40:32;9.60;;;4.30;;
50483;SDS011;36409;52.168;20.878;2023-05-29T04:43:03;13.53;;;5.10;;
50483;SDS011;36409;52.168;20.878;2023-05-29T04:45:57;13.57;;;4.73;;
50483;SDS011;36409;52.168;20.878;2023-05-29T04:48:31;8.57;;;4.27;;
50483;SDS011;36409;52.168;20.878;2023-05-29T04:51:03;10.57;;;4.97;;
50483;SDS011;36409;52.168;20.878;2023-05-29T04:53:34;9.47;;;4.83;;
50483;SDS011;36409;52.168;20.878;2023-05-29T04:56:06;9.20;;;4.30;;
50483;SDS011;36409;52.168;20.878;2023-05-29T04:58:44;8.00;;;4.20;;
50483;SDS011;36409;52.168;20.878;2023-05-29T05:01:21;8.37;;;3.70;;
50483;SDS011;36409;52.168;20.878;2023-05-29T05:03:56;10.97;;;3.50;;
50483;SDS011;36409;52.168;20.878;2023-05-29T05:06:33;9.03;;;3.20;;
50483;SDS011;36409;52.168;20.878;2023-05-29T05:09:09;9.43;;;2.97;;
50483;SDS011;36409;52.168;20.878;2023-05-29T05:11:47;10.00;;;3.33;;
50483;SDS011;36409;52.168;20.878;2023-05-29T05:14:17;9.37;;;3.23;;
50483;SDS011;36409;52.168;20.878;2023-05-29T05:16:48;8.53;;;3.10;;
50483;SDS011;36409;52.168;20.878;2023-05-29T05:19:23;10.57;;;3.30;;
50483;SDS011;36409;52.168;20.878;2023-05-29T05:21:57;5.43;;;3.00;;
50483;SDS011;36409;52.168;20.878;2023-05-29T05:24:28;6.77;;;3.10;;
50483;SDS011;36409;52.168;20.878;2023-05-29T05:27:06;8.30;;;3.10;;
50483;SDS011;36409;52.168;20.878;2023-05-29T05:29:43;9.57;;;3.47;;
50483;SDS011;36409;52.168;20.878;2023-05-29T05:32:14;8.27;;;3.17;;
50483;SDS011;36409;52.168;20.878;2023-05-29T05:34:48;15.20;;;3.57;;
50483;SDS011;36409;52.168;20.878;2023-05-29T05:37:17;7.30;;;2.73;;
50483;SDS011;36409;52.168;20.878;2023-05-29T05:39:52;5.20;;;2.60;;
50483;SDS011;36409;52.168;20.878;2023-05-29T05:42:25;8.20;;;2.33;;
50483;SDS011;36409;52.168;20.878;2023-05-29T05:45:11;5.90;;;2.47;;
50483;SDS011;36409;52.168;20.878;2023-05-29T05:47:43;12.00;;;3.33;;
50483;SDS011;36409;52.168;20.878;2023-05-29T05:50:16;5.10;;;2.40;;
50483;SDS011;36409;52.168;20.878;2023-05-29T05:52:48;7.20;;;2.73;;
50483;SDS011;36409;52.168;20.878;2023-05-29T05:55:19;8.70;;;2.30;;
50483;SDS011;36409;52.168;20.878;2023-05-29T05:57:54;11.23;;;2.40;;
50483;SDS011;36409;52.168;20.878;2023-05-29T06:00:24;6.97;;;3.13;;
50483;SDS011;36409;52.168;20.878;2023-05-29T06:02:58;10.57;;;3.30;;
50483;SDS011;36409;52.168;20.878;2023-05-29T06:05:56;6.70;;;2.70;;
50483;SDS011;36409;52.168;20.878;2023-05-29T06:08:27;9.35;;;3.60;;
50483;SDS011;36409;52.168;20.878;2023-05-29T06:10:58;12.47;;;3.08;;
50483;SDS011;36409;52.168;20.878;2023-05-29T06:13:31;9.87;;;3.20;;
50483;SDS011;36409;52.168;20.878;2023-05-29T06:16:06;7.73;;;3.43;;
50483;SDS011;36409;52.168;20.878;2023-05-29T06:18:41;12.40;;;3.13;;
50483;SDS011;36409;52.168;20.878;2023-05-29T06:21:11;9.70;;;3.63;;
50483;SDS011;36409;52.168;20.878;2023-05-29T06:23:51;8.03;;;3.07;;
50483;SDS011;36409;52.168;20.878;2023-05-29T06:26:21;6.28;;;2.65;;
50483;SDS011;36409;52.168;20.878;2023-05-29T06:28:54;11.03;;;3.13;;
50483;SDS011;36409;52.168;20.878;2023-05-29T06:31:34;6.63;;;2.43;;
50483;SDS011;36409;52.168;20.878;2023-05-29T06:34:03;6.33;;;2.27;;
50483;SDS011;36409;52.168;20.878;2023-05-29T06:36:38;11.37;;;3.13;;
50483;SDS011;36409;52.168;20.878;2023-05-29T06:39:13;11.63;;;2.97;;
50483;SDS011;36409;52.168;20.878;2023-05-29T06:41:43;10.23;;;2.63;;
50483;SDS011;36409;52.168;20.878;2023-05-29T06:44:19;5.20;;;2.33;;
50483;SDS011;36409;52.168;20.878;2023-05-29T06:46:48;8.13;;;2.17;;
50483;SDS011;36409;52.168;20.878;2023-05-29T06:49:18;6.60;;;2.75;;
50483;SDS011;36409;52.168;20.878;2023-05-29T06:51:47;10.37;;;2.60;;
50483;SDS011;36409;52.168;20.878;2023-05-29T06:54:33;4.90;;;2.13;;
50483;SDS011;36409;52.168;20.878;2023-05-29T06:57:03;4.90;;;2.17;;
50483;SDS011;36409;52.168;20.878;2023-05-29T06:59:42;7.23;;;2.30;;
50483;SDS011;36409;52.168;20.878;2023-05-29T07:02:11;7.37;;;2.63;;
50483;SDS011;36409;52.168;20.878;2023-05-29T07:04:45;4.57;;;2.00;;
50483;SDS011;36409;52.168;20.878;2023-05-29T07:07:15;8.07;;;2.10;;
50483;SDS011;36409;52.168;20.878;2023-05-29T07:09:45;6.53;;;2.03;;
50483;SDS011;36409;52.168;20.878;2023-05-29T07:12:15;8.70;;;2.57;;
50483;SDS011;36409;52.168;20.878;2023-05-29T07:14:44;11.43;;;2.67;;
50483;SDS011;36409;52.168;20.878;2023-05-29T07:17:17;8.20;;;2.17;;
50483;SDS011;36409;52.168;20.878;2023-05-29T07:19:49;5.77;;;2.40;;
50483;SDS011;36409;52.168;20.878;2023-05-29T07:22:18;6.23;;;2.27;;
50483;SDS011;36409;52.168;20.878;2023-05-29T07:24:47;8.20;;;2.27;;
50483;SDS011;36409;52.168;20.878;2023-05-29T07:27:16;8.50;;;2.80;;
50483;SDS011;36409;52.168;20.878;2023-05-29T07:29:46;9.45;;;2.40;;
50483;SDS011;36409;52.168;20.878;2023-05-29T07:32:16;6.80;;;2.10;;
50483;SDS011;36409;52.168;20.878;2023-05-29T07:34:45;8.90;;;2.17;;
50483;SDS011;36409;52.168;20.878;2023-05-29T07:37:17;10.07;;;2.10;;
50483;SDS011;36409;52.168;20.878;2023-05-29T07:39:49;8.53;;;2.53;;
50483;SDS011;36409;52.168;20.878;2023-05-29T07:42:38;7.13;;;2.60;;
50483;SDS011;36409;52.168;20.878;2023-05-29T07:45:11;10.70;;;2.60;;
50483;SDS011;36409;52.168;20.878;2023-05-29T07:47:42;8.53;;;2.40;;
50483;SDS011;36409;52.168;20.878;2023-05-29T07:50:17;9.00;;;3.05;;
50483;SDS011;36409;52.168;20.878;2023-05-29T07:52:48;6.33;;;2.10;;
50483;SDS011;36409;52.168;20.878;2023-05-29T07:55:20;9.88;;;2.67;;
50483;SDS011;36409;52.168;20.878;2023-05-29T07:57:50;7.43;;;2.17;;
50483;SDS011;36409;52.168;20.878;2023-05-29T08:00:20;9.53;;;2.57;;
50483;SDS011;36409;52.168;20.878;2023-05-29T08:02:53;5.73;;;2.43;;
50483;SDS011;36409;52.168;20.878;2023-05-29T08:05:30;7.10;;;2.13;;
50483;SDS011;36409;52.168;20.878;2023-05-29T08:08:05;14.63;;;2.10;;
50483;SDS011;36409;52.168;20.878;2023-05-29T08:10:36;8.80;;;2.20;;
50483;SDS011;36409;52.168;20.878;2023-05-29T08:13:09;7.13;;;2.70;;
50483;SDS011;36409;52.168;20.878;2023-05-29T08:15:42;15.87;;;2.20;;
50483;SDS011;36409;52.168;20.878;2023-05-29T08:18:11;7.10;;;2.33;;
50483;SDS011;36409;52.168;20.878;2023-05-29T08:20:41;6.80;;;2.50;;
50483;SDS011;36409;52.168;20.878;2023-05-29T08:23:14;9.87;;;2.63;;
50483;SDS011;36409;52.168;20.878;2023-05-29T08:25:43;6.77;;;1.73;;
50483;SDS011;36409;52.168;20.878;2023-05-29T08:28:13;9.17;;;1.90;;
50483;SDS011;36409;52.168;20.878;2023-05-29T08:30:47;7.57;;;2.33;;
50483;SDS011;36409;52.168;20.878;2023-05-29T08:33:17;7.37;;;2.00;;
50483;SDS011;36409;52.168;20.878;2023-05-29T08:35:46;7.37;;;1.93;;
50483;SDS011;36409;52.168;20.878;2023-05-29T08:38:15;13.80;;;2.00;;
50483;SDS011;36409;52.168;20.878;2023-05-29T08:40:44;7.50;;;2.20;;
50483;SDS011;36409;52.168;20.878;2023-05-29T08:43:18;10.27;;;2.20;;
50483;SDS011;36409;52.168;20.878;2023-05-29T08:45:56;9.80;;;2.23;;
50483;SDS011;36409;52.168;20.878;2023-05-29T08:48:31;4.70;;;2.20;;
50483;SDS011;36409;52.168;20.878;2023-05-29T08:51:02;8.60;;;2.00;;
50483;SDS011;36409;52.168;20.878;2023-05-29T08:53:35;8.63;;;2.17;;
50483;SDS011;36409;52.168;20.878;2023-05-29T08:56:08;7.50;;;2.03;;
50483;SDS011;36409;52.168;20.878;2023-05-29T08:58:57;8.03;;;1.77;;
50483;SDS011;36409;52.168;20.878;2023-05-29T09:01:28;10.33;;;2.40;;
50483;SDS011;36409;52.168;20.878;2023-05-29T09:03:59;5.03;;;2.03;;
50483;SDS011;36409;52.168;20.878;2023-05-29T09:06:28;13.17;;;2.40;;
50483;SDS011;36409;52.168;20.878;2023-05-29T09:08:58;5.97;;;2.40;;
50483;SDS011;36409;52.168;20.878;2023-05-29T09:11:28;6.70;;;2.27;;
50483;SDS011;36409;52.168;20.878;2023-05-29T09:13:59;6.10;;;2.20;;
50483;SDS011;36409;52.168;20.878;2023-05-29T09:16:32;8.07;;;2.70;;
50483;SDS011;36409;52.168;20.878;2023-05-29T09:19:13;6.07;;;2.60;;
50483;SDS011;36409;52.168;20.878;2023-05-29T09:21:44;8.30;;;2.30;;
50483;SDS011;36409;52.168;20.878;2023-05-29T09:24:15;6.20;;;2.10;;
50483;SDS011;36409;52.168;20.878;2023-05-29T09:26:51;11.63;;;2.50;;
50483;SDS011;36409;52.168;20.878;2023-05-29T09:29:22;9.87;;;2.30;;
50483;SDS011;36409;52.168;20.878;2023-05-29T09:32:03;14.43;;;2.70;;
50483;SDS011;36409;52.168;20.878;2023-05-29T09:34:38;11.77;;;3.40;;
50483;SDS011;36409;52.168;20.878;2023-05-29T09:37:14;11.03;;;2.43;;
50483;SDS011;36409;52.168;20.878;2023-05-29T09:39:45;7.83;;;2.07;;
50483;SDS011;36409;52.168;20.878;2023-05-29T09:42:15;11.83;;;2.70;;
50483;SDS011;36409;52.168;20.878;2023-05-29T09:44:48;8.20;;;2.73;;
50483;SDS011;36409;52.168;20.878;2023-05-29T09:47:19;9.80;;;2.57;;
50483;SDS011;36409;52.168;20.878;2023-05-29T09:49:49;9.80;;;2.27;;
50483;SDS011;36409;52.168;20.878;2023-05-29T09:52:21;11.63;;;2.70;;
50483;SDS011;36409;52.168;20.878;2023-05-29T09:54:51;9.60;;;2.77;;
50483;SDS011;36409;52.168;20.878;2023-05-29T09:57:23;6.97;;;2.47;;
50483;SDS011;36409;52.168;20.878;2023-05-29T09:59:57;7.60;;;2.40;;
50483;SDS011;36409;52.168;20.878;2023-05-29T10:02:39;8.13;;;2.83;;
50483;SDS011;36409;52.168;20.878;2023-05-29T10:05:11;8.83;;;2.17;;
50483;SDS011;36409;52.168;20.878;2023-05-29T10:07:46;4.07;;;2.10;;
50483;SDS011;36409;52.168;20.878;2023-05-29T10:10:20;5.93;;;2.40;;
50483;SDS011;36409;52.168;20.878;2023-05-29T10:12:58;12.17;;;3.00;;
50483;SDS011;36409;52.168;20.878;2023-05-29T10:18:03;4.80;;;2.23;;
50483;SDS011;36409;52.168;20.878;2023-05-29T10:20:40;9.70;;;2.40;;
50483;SDS011;36409;52.168;20.878;2023-05-29T10:23:15;7.83;;;2.60;;
50483;SDS011;36409;52.168;20.878;2023-05-29T10:25:46;10.70;;;2.85;;
50483;SDS011;36409;52.168;20.878;2023-05-29T10:28:23;9.07;;;2.60;;
50483;SDS011;36409;52.168;20.878;2023-05-29T10:30:57;9.57;;;2.47;;
50483;SDS011;36409;52.168;20.878;2023-05-29T10:33:44;11.43;;;2.67;;
50483;SDS011;36409;52.168;20.878;2023-05-29T10:36:21;9.20;;;2.60;;
50483;SDS011;36409;52.168;20.878;2023-05-29T10:38:54;10.67;;;2.23;;
50483;SDS011;36409;52.168;20.878;2023-05-29T10:41:32;12.20;;;2.98;;
50483;SDS011;36409;52.168;20.878;2023-05-29T10:47:09;9.10;;;2.65;;
50483;SDS011;36409;52.168;20.878;2023-05-29T10:49:49;10.07;;;3.30;;
50483;SDS011;36409;52.168;20.878;2023-05-29T10:52:19;9.33;;;2.50;;
50483;SDS011;36409;52.168;20.878;2023-05-29T10:54:53;6.50;;;2.53;;
50483;SDS011;36409;52.168;20.878;2023-05-29T10:57:23;9.83;;;2.47;;
50483;SDS011;36409;52.168;20.878;2023-05-29T11:00:09;8.53;;;2.87;;
50483;SDS011;36409;52.168;20.878;2023-05-29T11:02:48;10.00;;;2.58;;
50483;SDS011;36409;52.168;20.878;2023-05-29T11:05:22;11.50;;;2.70;;
50483;SDS011;36409;52.168;20.878;2023-05-29T11:07:56;7.83;;;2.50;;
50483;SDS011;36409;52.168;20.878;2023-05-29T11:13:33;9.10;;;2.73;;
50483;SDS011;36409;52.168;20.878;2023-05-29T11:16:12;15.63;;;2.33;;
50483;SDS011;36409;52.168;20.878;2023-05-29T11:18:52;10.50;;;2.63;;
50483;SDS011;36409;52.168;20.878;2023-05-29T11:21:29;15.23;;;2.60;;
50483;SDS011;36409;52.168;20.878;2023-05-29T11:24:02;9.33;;;2.53;;
50483;SDS011;36409;52.168;20.878;2023-05-29T11:26:36;9.87;;;2.87;;
50483;SDS011;36409;52.168;20.878;2023-05-29T11:29:09;13.07;;;2.77;;
50483;SDS011;36409;52.168;20.878;2023-05-29T11:31:40;6.67;;;2.40;;
50483;SDS011;36409;52.168;20.878;2023-05-29T11:34:14;7.80;;;2.60;;
50483;SDS011;36409;52.168;20.878;2023-05-29T11:36:45;7.13;;;2.20;;
50483;SDS011;36409;52.168;20.878;2023-05-29T11:39:16;10.37;;;2.40;;
50483;SDS011;36409;52.168;20.878;2023-05-29T11:41:50;7.65;;;2.45;;
50483;SDS011;36409;52.168;20.878;2023-05-29T11:44:25;12.50;;;2.10;;
50483;SDS011;36409;52.168;20.878;2023-05-29T11:47:00;8.90;;;2.40;;
50483;SDS011;36409;52.168;20.878;2023-05-29T11:49:31;8.77;;;2.77;;
50483;SDS011;36409;52.168;20.878;2023-05-29T11:52:11;10.73;;;2.90;;
50483;SDS011;36409;52.168;20.878;2023-05-29T11:54:44;6.53;;;2.10;;
50483;SDS011;36409;52.168;20.878;2023-05-29T11:57:18;5.30;;;2.20;;
50483;SDS011;36409;52.168;20.878;2023-05-29T11:59:48;4.20;;;2.40;;
50483;SDS011;36409;52.168;20.878;2023-05-29T12:02:28;7.60;;;2.10;;
50483;SDS011;36409;52.168;20.878;2023-05-29T12:05:01;7.73;;;2.43;;
50483;SDS011;36409;52.168;20.878;2023-05-29T12:07:37;5.13;;;2.00;;
50483;SDS011;36409;52.168;20.878;2023-05-29T12:10:15;8.27;;;2.23;;
50483;SDS011;36409;52.168;20.878;2023-05-29T12:12:51;5.73;;;2.73;;
50483;SDS011;36409;52.168;20.878;2023-05-29T12:15:22;6.03;;;2.23;;
50483;SDS011;36409;52.168;20.878;2023-05-29T12:17:59;3.97;;;1.90;;
50483;SDS011;36409;52.168;20.878;2023-05-29T12:20:30;5.90;;;2.70;;
50483;SDS011;36409;52.168;20.878;2023-05-29T12:23:00;5.43;;;2.43;;
50483;SDS011;36409;52.168;20.878;2023-05-29T12:25:33;6.77;;;2.20;;
50483;SDS011;36409;52.168;20.878;2023-05-29T12:28:06;5.23;;;2.03;;
50483;SDS011;36409;52.168;20.878;2023-05-29T12:30:37;4.17;;;2.00;;
50483;SDS011;36409;52.168;20.878;2023-05-29T12:33:07;6.53;;;2.20;;
50483;SDS011;36409;52.168;20.878;2023-05-29T12:35:48;7.77;;;2.47;;
50483;SDS011;36409;52.168;20.878;2023-05-29T12:38:18;6.17;;;1.90;;
50483;SDS011;36409;52.168;20.878;2023-05-29T12:41:01;4.90;;;1.90;;
50483;SDS011;36409;52.168;20.878;2023-05-29T12:43:34;8.70;;;1.90;;
50483;SDS011;36409;52.168;20.878;2023-05-29T12:46:08;10.20;;;2.57;;
50483;SDS011;36409;52.168;20.878;2023-05-29T12:48:39;7.30;;;2.00;;
50483;SDS011;36409;52.168;20.878;2023-05-29T12:51:08;8.40;;;2.10;;
50483;SDS011;36409;52.168;20.878;2023-05-29T12:53:41;5.35;;;2.00;;
50483;SDS011;36409;52.168;20.878;2023-05-29T12:56:10;4.20;;;2.10;;
50483;SDS011;36409;52.168;20.878;2023-05-29T12:58:40;5.77;;;2.10;;
50483;SDS011;36409;52.168;20.878;2023-05-29T13:01:13;7.13;;;2.20;;
50483;SDS011;36409;52.168;20.878;2023-05-29T13:03:44;5.70;;;1.70;;
50483;SDS011;36409;52.168;20.878;2023-05-29T13:06:16;3.10;;;1.57;;
50483;SDS011;36409;52.168;20.878;2023-05-29T13:08:47;6.70;;;2.07;;
50483;SDS011;36409;52.168;20.878;2023-05-29T13:11:22;5.00;;;2.00;;
50483;SDS011;36409;52.168;20.878;2023-05-29T13:13:51;15.27;;;3.53;;
50483;SDS011;36409;52.168;20.878;2023-05-29T13:16:23;6.23;;;1.93;;
50483;SDS011;36409;52.168;20.878;2023-05-29T13:19:03;6.63;;;1.80;;
50483;SDS011;36409;52.168;20.878;2023-05-29T13:21:36;5.63;;;2.20;;
50483;SDS011;36409;52.168;20.878;2023-05-29T13:24:07;6.70;;;1.90;;
50483;SDS011;36409;52.168;20.878;2023-05-29T13:26:40;4.13;;;1.67;;
50483;SDS011;36409;52.168;20.878;2023-05-29T13:29:11;3.70;;;1.63;;
50483;SDS011;36409;52.168;20.878;2023-05-29T13:31:41;5.33;;;2.00;;
50483;SDS011;36409;52.168;20.878;2023-05-29T13:34:13;4.40;;;2.20;;
50483;SDS011;36409;52.168;20.878;2023-05-29T13:36:43;7.47;;;2.00;;
50483;SDS011;36409;52.168;20.878;2023-05-29T13:39:13;4.83;;;2.10;;
50483;SDS011;36409;52.168;20.878;2023-05-29T13:41:47;6.00;;;1.80;;
50483;SDS011;36409;52.168;20.878;2023-05-29T13:44:18;8.43;;;2.40;;
50483;SDS011;36409;52.168;20.878;2023-05-29T13:46:47;4.07;;;1.80;;
50483;SDS011;36409;52.168;20.878;2023-05-29T13:49:19;5.43;;;2.23;;
50483;SDS011;36409;52.168;20.878;2023-05-29T13:51:55;7.07;;;2.10;;
50483;SDS011;36409;52.168;20.878;2023-05-29T13:54:31;7.13;;;2.50;;
50483;SDS011;36409;52.168;20.878;2023-05-29T13:57:03;4.43;;;1.77;;
50483;SDS011;36409;52.168;20.878;2023-05-29T13:59:35;8.50;;;2.07;;
50483;SDS011;36409;52.168;20.878;2023-05-29T14:02:05;5.03;;;2.00;;
50483;SDS011;36409;52.168;20.878;2023-05-29T14:04:36;5.70;;;2.00;;
50483;SDS011;36409;52.168;20.878;2023-05-29T14:07:15;8.03;;;2.57;;
50483;SDS011;36409;52.168;20.878;2023-05-29T14:09:44;4.40;;;1.90;;
50483;SDS011;36409;52.168;20.878;2023-05-29T14:12:15;6.83;;;2.30;;
50483;SDS011;36409;52.168;20.878;2023-05-29T14:14:45;7.30;;;2.07;;
50483;SDS011;36409;52.168;20.878;2023-05-29T14:17:15;5.47;;;1.70;;
50483;SDS011;36409;52.168;20.878;2023-05-29T14:19:54;6.90;;;1.97;;
50483;SDS011;36409;52.168;20.878;2023-05-29T14:22:24;5.17;;;1.90;;
50483;SDS011;36409;52.168;20.878;2023-05-29T14:24:55;3.67;;;1.60;;
50483;SDS011;36409;52.168;20.878;2023-05-29T14:27:29;3.40;;;1.70;;
50483;SDS011;36409;52.168;20.878;2023-05-29T14:30:02;4.93;;;2.10;;
50483;SDS011;36409;52.168;20.878;2023-05-29T14:32:49;6.37;;;2.17;;
50483;SDS011;36409;52.168;20.878;2023-05-29T14:35:18;7.80;;;1.80;;
50483;SDS011;36409;52.168;20.878;2023-05-29T14:37:50;8.23;;;2.40;;
50483;SDS011;36409;52.168;20.878;2023-05-29T14:40:21;5.80;;;2.17;;
50483;SDS011;36409;52.168;20.878;2023-05-29T14:42:50;6.93;;;2.07;;
50483;SDS011;36409;52.168;20.878;2023-05-29T14:45:24;9.17;;;2.23;;
50483;SDS011;36409;52.168;20.878;2023-05-29T14:47:56;8.63;;;2.07;;
50483;SDS011;36409;52.168;20.878;2023-05-29T14:50:28;6.00;;;2.37;;
50483;SDS011;36409;52.168;20.878;2023-05-29T14:52:59;4.90;;;1.70;;
50483;SDS011;36409;52.168;20.878;2023-05-29T14:55:28;5.67;;;2.23;;
50483;SDS011;36409;52.168;20.878;2023-05-29T14:58:02;5.00;;;2.00;;
50483;SDS011;36409;52.168;20.878;2023-05-29T15:00:32;3.90;;;1.70;;
50483;SDS011;36409;52.168;20.878;2023-05-29T15:03:05;7.00;;;2.63;;
50483;SDS011;36409;52.168;20.878;2023-05-29T15:05:35;7.77;;;2.10;;
50483;SDS011;36409;52.168;20.878;2023-05-29T15:08:06;6.33;;;2.10;;
50483;SDS011;36409;52.168;20.878;2023-05-29T15:10:41;4.63;;;2.10;;
50483;SDS011;36409;52.168;20.878;2023-05-29T15:13:12;4.30;;;2.03;;
50483;SDS011;36409;52.168;20.878;2023-05-29T15:18:18;4.20;;;1.90;;
50483;SDS011;36409;52.168;20.878;2023-05-29T15:20:58;4.20;;;1.70;;
50483;SDS011;36409;52.168;20.878;2023-05-29T15:23:38;5.20;;;2.20;;
50483;SDS011;36409;52.168;20.878;2023-05-29T15:26:07;5.40;;;2.05;;
50483;SDS011;36409;52.168;20.878;2023-05-29T15:28:40;5.27;;;1.83;;
50483;SDS011;36409;52.168;20.878;2023-05-29T15:31:14;3.97;;;1.90;;